Time;durP1;ratioP1;P1;durP2;ratioP2;P2;SDS_P1;SDS_P2;PMS_P1;PMS_P2;Temp;Humidity;BMP_temperature;BMP_pressure;BME280_temperature;BME280_humidity;BME280_pressure;Samples;Min_cycle;Max_cycle;Signal;HPM_P1;HPM_P2
2021/10/26 00:02:00;;;;;;;7.27;5.17;;;;;;;;;;5056754;28;20470;-91
2021/10/26 00:04:27;;;;;;;8.47;6.13;;;;;;;;;;5053441;28;20832;-93
2021/10/26 00:06:56;;;;;;;6.70;5.57;;;;;;;;;;5053895;28;20501;-92
2021/10/26 00:09:23;;;;;;;6.97;5.00;;;;;;;;;;5056517;28;20447;-92
2021/10/26 00:11:51;;;;;;;8.40;6.20;;;;;;;;;;5052127;28;21065;-91
2021/10/26 00:14:18;;;;;;;9.07;6.10;;;;;;;;;;5053393;28;20809;-94
2021/10/26 00:16:45;;;;;;;7.60;6.23;;;8.50;99.90;;;;;;5056098;28;20457;-92
2021/10/26 00:19:12;;;;;;;6.50;5.70;;;;;;;;;;5055895;28;20451;-92
2021/10/26 00:21:39;;;;;;;7.07;6.37;;;;;;;;;;5056157;28;20446;-91
2021/10/26 00:24:08;;;;;;;6.30;5.70;;;;;;;;;;5056028;28;20518;-94
2021/10/26 00:26:35;;;;;;;9.40;6.37;;;;;;;;;;5052014;28;20918;-93
2021/10/26 00:29:02;;;;;;;8.10;5.60;;;;;;;;;;5050851;28;20451;-93
2021/10/26 00:31:30;;;;;;;9.13;6.30;;;;;;;;;;5055763;28;20470;-92
2021/10/26 00:33:57;;;;;;;7.43;5.53;;;;;;;;;;5052783;28;20478;-93
2021/10/26 00:36:25;;;;;;;11.17;6.07;;;;;;;;;;5055995;28;20458;-91
2021/10/26 00:38:52;;;;;;;7.30;6.20;;;;;;;;;;5059626;28;20450;-92
2021/10/26 00:41:21;;;;;;;8.20;5.40;;;;;;;;;;5074390;28;20450;-93
2021/10/26 00:43:48;;;;;;;6.73;5.30;;;;;;;;;;5058314;28;20431;-93
2021/10/26 00:46:27;;;;;;;6.33;5.73;;;8.20;99.90;;;;;;5054924;28;20438;-93
2021/10/26 00:48:54;;;;;;;8.50;5.60;;;;;;;;;;5055073;28;20454;-92
2021/10/26 00:51:22;;;;;;;6.57;5.87;;;;;;;;;;5054917;28;20439;-92
2021/10/26 00:53:49;;;;;;;6.90;6.20;;;;;;;;;;5052412;28;20941;-94
2021/10/26 00:56:16;;;;;;;8.27;5.63;;;;;;;;;;5050935;28;20921;-91
2021/10/26 00:58:45;;;;;;;7.73;5.63;;;;;;;;;;5051928;28;20442;-95
2021/10/26 01:01:12;;;;;;;8.10;6.57;;;;;;;;;;5051778;28;20486;-95
2021/10/26 01:03:39;;;;;;;8.03;5.87;;;;;;;;;;5055041;28;20443;-95
2021/10/26 01:06:06;;;;;;;6.43;5.23;;;;;;;;;;5054861;28;20453;-93
2021/10/26 01:08:34;;;;;;;6.57;5.13;;;;;;;;;;5054994;28;20510;-93
2021/10/26 01:11:01;;;;;;;6.03;5.43;;;;;;;;;;5050734;28;20481;-94
2021/10/26 01:13:29;;;;;;;8.90;6.80;;;;;;;;;;5054809;28;20446;-92
2021/10/26 01:15:57;;;;;;;6.57;5.57;;;;;;;;;;5054445;28;20454;-93
2021/10/26 01:18:25;;;;;;;8.77;6.03;;;;;;;;;;5052521;28;20469;-92
2021/10/26 01:20:54;;;;;;;6.80;5.60;;;;;;;;;;5054520;28;20446;-92
2021/10/26 01:23:21;;;;;;;5.97;4.77;;;;;;;;;;5051423;28;20949;-93
2021/10/26 01:25:48;;;;;;;6.13;5.53;;;8.50;99.90;;;;;;5050529;28;20465;-92
2021/10/26 01:28:16;;;;;;;7.03;6.27;;;;;;;;;;5052477;28;20494;-93
2021/10/26 01:30:43;;;;;;;8.53;6.00;;;;;;;;;;5053917;28;20466;-94
2021/10/26 01:33:10;;;;;;;12.50;7.50;;;;;;;;;;5051247;28;20918;-92
2021/10/26 01:35:38;;;;;;;9.63;7.03;;;;;;;;;;5051236;28;20442;-93
2021/10/26 01:38:07;;;;;;;8.57;7.13;;;;;;;;;;5050983;28;20457;-92
2021/10/26 01:40:35;;;;;;;9.00;6.63;;;;;;;;;;5053547;28;20522;-92
2021/10/26 01:43:02;;;;;;;8.73;5.40;;;;;;;;;;5051356;28;20497;-92
2021/10/26 01:45:29;;;;;;;8.27;6.63;;;;;;;;;;5050806;28;20450;-91
2021/10/26 01:47:57;;;;;;;7.00;6.13;;;;;;;;;;5050920;28;20482;-91
2021/10/26 01:50:24;;;;;;;9.27;6.30;;;;;;;;;;5054036;28;20778;-93
2021/10/26 01:52:51;;;;;;;11.30;6.13;;;;;;;;;;5054446;28;20454;-93
2021/10/26 01:55:20;;;;;;;9.97;6.27;;;;;;;;;;5057104;28;20439;-91
2021/10/26 01:57:48;;;;;;;7.00;5.80;;;;;;;;;;5058034;28;20508;-92
2021/10/26 02:00:18;;;;;;;12.43;6.13;;;9.60;99.90;;;;;;5054535;28;20486;-93
2021/10/26 02:02:46;;;;;;;9.47;6.63;;;;;;;;;;5058160;28;20500;-93
2021/10/26 02:05:13;;;;;;;11.87;6.03;;;;;;;;;;5057878;28;20472;-93
2021/10/26 02:07:40;;;;;;;8.00;6.00;;;;;;;;;;5057693;28;20509;-91
2021/10/26 02:10:07;;;;;;;8.53;6.57;;;;;;;;;;5069111;28;20451;-91
2021/10/26 02:12:36;;;;;;;8.27;6.50;;;;;;;;;;5067499;28;20815;-93
2021/10/26 02:15:05;;;;;;;10.83;7.33;;;9.20;99.90;;;;;;5058011;28;20461;-92
2021/10/26 02:17:32;;;;;;;8.53;6.60;;;;;;;;;;5057821;28;20427;-93
2021/10/26 02:20:00;;;;;;;9.83;7.50;;;;;;;;;;5057570;28;20430;-92
2021/10/26 02:22:27;;;;;;;9.87;7.23;;;;;;;;;;5057488;28;20469;-93
2021/10/26 02:24:54;;;;;;;10.60;7.20;;;;;;;;;;5056757;28;20443;-92
2021/10/26 02:27:21;;;;;;;11.10;7.77;;;;;;;;;;5057064;28;20992;-94
2021/10/26 02:29:49;;;;;;;9.70;8.50;;;9.10;99.90;;;;;;5054175;28;20473;-93
2021/10/26 02:32:17;;;;;;;10.40;8.53;;;;;;;;;;5055373;28;20452;-93
2021/10/26 02:34:44;;;;;;;9.57;7.23;;;;;;;;;;5057311;28;20437;-92
2021/10/26 02:37:11;;;;;;;10.87;7.77;;;;;;;;;;5057469;28;20443;-92
2021/10/26 02:39:38;;;;;;;12.97;8.50;;;;;;;;;;5053560;28;20529;-91
2021/10/26 02:42:05;;;;;;;10.73;7.53;;;;;;;;;;5054321;28;20451;-93
2021/10/26 02:44:32;;;;;;;9.33;7.37;;;;;;;;;;5057454;28;20462;-93
2021/10/26 02:47:01;;;;;;;7.97;7.00;;;;;;;;;;5056837;28;20450;-91
2021/10/26 02:49:28;;;;;;;12.03;8.37;;;;;;;;;;5057093;28;20430;-93
2021/10/26 02:51:55;;;;;;;9.50;6.93;;;;;;;;;;5057150;28;20450;-92
2021/10/26 02:54:22;;;;;;;11.03;8.00;;;;;;;;;;5056872;28;20438;-92
2021/10/26 02:56:49;;;;;;;10.63;8.30;;;;;;;;;;5056479;28;20462;-93
2021/10/26 02:59:18;;;;;;;10.80;7.83;;;;;;;;;;5056822;28;20459;-92
2021/10/26 03:01:46;;;;;;;9.90;8.63;;;;;;;;;;5056644;28;20502;-93
2021/10/26 03:04:15;;;;;;;8.17;6.70;;;8.90;99.90;;;;;;5053186;28;20535;-91
2021/10/26 03:06:43;;;;;;;10.43;7.63;;;;;;;;;;5052356;28;20451;-94
2021/10/26 03:09:10;;;;;;;9.90;7.30;;;;;;;;;;5053240;28;20494;-94
2021/10/26 03:11:38;;;;;;;12.80;8.20;;;;;;;;;;5056211;28;20907;-93
2021/10/26 03:14:05;;;;;;;9.67;8.40;;;;;;;;;;5053489;28;20926;-92
2021/10/26 03:16:33;;;;;;;10.67;8.10;;;;;;;;;;5053268;28;20435;-92
2021/10/26 03:19:04;;;;;;;12.83;8.33;;;;;;;;;;5056231;28;20459;-92
2021/10/26 03:21:32;;;;;;;9.43;8.23;;;;;;;;;;5056435;28;20441;-93
2021/10/26 03:23:59;;;;;;;9.47;7.80;;;;;;;;;;5056698;28;20455;-91
2021/10/26 03:26:27;;;;;;;10.90;7.80;;;;;;;;;;5054907;28;20470;-95
2021/10/26 03:28:54;;;;;;;12.30;8.03;;;;;;;;;;5054252;28;20486;-93
2021/10/26 03:31:21;;;;;;;10.33;7.97;;;;;;;;;;5054492;28;20950;-91
2021/10/26 03:33:49;;;;;;;11.40;7.70;;;;;;;;;;5057427;28;20462;-92
2021/10/26 03:36:17;;;;;;;10.37;7.77;;;;;;;;;;5051438;28;20458;-92
2021/10/26 03:38:45;;;;;;;9.60;8.07;;;;;;;;;;5066560;28;20500;-94
2021/10/26 03:41:13;;;;;;;8.93;7.60;;;;;;;;;;5061271;28;20438;-94
2021/10/26 03:43:40;;;;;;;9.53;7.53;;;;;;;;;;5056754;28;20443;-91
2021/10/26 03:46:07;;;;;;;12.30;9.67;;;;;;;;;;5053021;28;20438;-92
2021/10/26 03:48:34;;;;;;;10.60;8.23;;;;;;;;;;5049911;28;20490;-93
2021/10/26 03:51:01;;;;;;;11.67;8.37;;;;;;;;;;5056001;28;20439;-91
2021/10/26 03:53:28;;;;;;;11.77;8.00;;;;;;;;;;5056294;28;20435;-93
2021/10/26 03:55:58;;;;;;;9.83;7.20;;;8.50;99.90;;;;;;5052229;28;20458;-92
2021/10/26 03:58:25;;;;;;;8.30;7.50;;;;;;;;;;5053133;28;20450;-93
2021/10/26 04:00:53;;;;;;;9.50;7.27;;;;;;;;;;5053179;28;20506;-91
2021/10/26 04:03:20;;;;;;;12.23;7.87;;;;;;;;;;5055990;28;20447;-91
2021/10/26 04:05:55;;;;;;;11.33;7.53;;;;;;;;;;5055804;28;20451;-91
2021/10/26 04:08:25;;;;;;;9.43;7.70;;;;;;;;;;5055568;28;20465;-92
2021/10/26 04:10:55;;;;;;;11.43;7.33;;;8.40;99.90;;;;;;5055908;28;20458;-93
2021/10/26 04:13:25;;;;;;;12.63;8.63;;;8.40;99.90;;;;;;5047981;28;20453;-92
2021/10/26 04:15:54;;;;;;;12.07;8.50;;;;;;;;;;5051772;28;20906;-93
2021/10/26 04:18:22;;;;;;;12.93;8.33;;;8.30;99.90;;;;;;5052703;28;20455;-94
2021/10/26 04:20:49;;;;;;;10.13;7.70;;;;;;;;;;5050760;28;20481;-93
2021/10/26 04:23:16;;;;;;;15.23;7.80;;;;;;;;;;5052497;28;20439;-91
2021/10/26 04:25:43;;;;;;;11.30;8.30;;;;;;;;;;5058435;28;20469;-93
2021/10/26 04:28:10;;;;;;;12.47;7.90;;;;;;;;;;5062909;28;20478;-92
2021/10/26 04:30:39;;;;;;;10.80;7.90;;;;;;;;;;5055366;28;20926;-92
2021/10/26 04:33:06;;;;;;;13.40;8.00;;;8.10;99.90;;;;;;5052130;28;20457;-93
2021/10/26 04:35:34;;;;;;;7.93;7.10;;;;;;;;;;5053673;28;20443;-91
2021/10/26 04:38:01;;;;;;;9.57;7.70;;;;;;;;;;5055109;28;20451;-91
2021/10/26 04:40:28;;;;;;;10.13;7.43;;;;;;;;;;5054429;28;20930;-92
2021/10/26 04:42:55;;;;;;;13.03;7.40;;;;;;;;;;5054774;28;20938;-91
2021/10/26 04:45:23;;;;;;;8.03;7.23;;;;;;;;;;5051914;28;20455;-92
2021/10/26 04:47:51;;;;;;;10.40;7.93;;;8.10;99.90;;;;;;5051748;28;20484;-93
2021/10/26 04:50:19;;;;;;;9.30;7.90;;;;;;;;;;5054698;28;20450;-92
2021/10/26 04:52:46;;;;;;;12.30;8.67;;;;;;;;;;5054801;28;20457;-94
2021/10/26 04:55:13;;;;;;;9.57;7.73;;;;;;;;;;5054628;28;20931;-92
2021/10/26 04:57:41;;;;;;;9.80;8.17;;;;;;;;;;5054964;28;20464;-92
2021/10/26 05:00:11;;;;;;;9.57;8.37;;;8.00;99.90;;;;;;5052192;28;20509;-92
2021/10/26 05:02:38;;;;;;;9.27;7.73;;;;;;;;;;5055519;28;20950;-94
2021/10/26 05:05:08;;;;;;;9.33;8.20;;;8.10;99.90;;;;;;5055060;28;20458;-93
2021/10/26 05:07:35;;;;;;;11.77;8.60;;;;;;;;;;5064283;28;20899;-92
2021/10/26 05:10:02;;;;;;;12.97;8.57;;;;;;;;;;5058654;28;20486;-92
2021/10/26 05:12:29;;;;;;;12.40;8.40;;;;;;;;;;5055056;28;20443;-92
2021/10/26 05:14:57;;;;;;;10.97;7.90;;;;;;;;;;5054657;28;20442;-93
2021/10/26 05:17:25;;;;;;;9.50;8.50;;;;;;;;;;5052159;28;20454;-93
2021/10/26 05:19:53;;;;;;;12.40;8.70;;;;;;;;;;5054711;28;20478;-93
2021/10/26 05:22:24;;;;;;;13.83;9.70;;;;;;;;;;5051736;28;20435;-93
2021/10/26 05:24:52;;;;;;;12.93;10.70;;;;;;;;;;5054413;28;20459;-92
2021/10/26 05:27:19;;;;;;;14.00;10.77;;;;;;;;;;5052576;28;20451;-93
2021/10/26 05:29:47;;;;;;;11.40;9.00;;;;;;;;;;5055319;28;20490;-92
2021/10/26 05:32:14;;;;;;;13.93;9.57;;;;;;;;;;5056081;28;20473;-92
2021/10/26 05:34:42;;;;;;;11.63;9.67;;;;;;;;;;5059493;28;20439;-93
2021/10/26 05:37:11;;;;;;;11.90;8.87;;;8.00;99.90;;;;;;5059665;28;20451;-91
2021/10/26 05:39:40;;;;;;;11.33;9.30;;;8.20;99.90;;;;;;5059211;28;20435;-92
2021/10/26 05:42:13;;;;;;;15.63;10.00;;;8.20;99.90;;;;;;5055416;28;20453;-92
2021/10/26 05:44:40;;;;;;;12.57;9.90;;;;;;;;;;5055512;28;20933;-91
2021/10/26 05:47:07;;;;;;;13.73;9.20;;;;;;;;;;5058234;28;20431;-93
2021/10/26 05:49:37;;;;;;;10.73;9.63;;;;;;;;;;5059314;28;20497;-92
2021/10/26 05:52:04;;;;;;;13.20;9.00;;;;;;;;;;5059435;28;20438;-92
2021/10/26 05:54:31;;;;;;;11.63;8.90;;;;;;;;;;5057436;28;20442;-91
2021/10/26 05:57:00;;;;;;;12.00;9.83;;;;;;;;;;5055197;28;20434;-92
2021/10/26 06:02:09;;;;;;;15.73;9.37;;;;;;;;;;5058164;28;20454;-92
2021/10/26 06:04:37;;;;;;;17.97;9.13;;;;;;;;;;5054695;28;20455;-93
2021/10/26 06:07:04;;;;;;;11.30;8.47;;;;;;;;;;5054963;28;20459;-93
2021/10/26 06:09:34;;;;;;;11.30;9.30;;;;;;;;;;5057305;28;20482;-90
2021/10/26 06:12:03;;;;;;;11.83;8.33;;;;;;;;;;5054963;28;20458;-92
2021/10/26 06:14:30;;;;;;;13.17;8.97;;;;;;;;;;5057606;28;20446;-94
2021/10/26 06:17:00;;;;;;;16.30;11.57;;;;;;;;;;5057325;28;20529;-91
2021/10/26 06:19:27;;;;;;;16.33;9.30;;;;;;;;;;5057280;28;20533;-91
2021/10/26 06:21:54;;;;;;;15.07;9.90;;;;;;;;;;5054190;28;20930;-90
2021/10/26 06:24:21;;;;;;;12.83;7.67;;;;;;;;;;5050233;28;20984;-91
2021/10/26 06:26:49;;;;;;;13.37;10.70;;;;;;;;;;5056867;28;20443;-94
2021/10/26 06:29:17;;;;;;;13.80;9.37;;;;;;;;;;5058121;28;20493;-94
2021/10/26 06:31:45;;;;;;;13.53;9.20;;;;;;;;;;5057352;28;20465;-92
2021/10/26 06:34:12;;;;;;;11.87;10.50;;;;;;;;;;5057332;28;20538;-90
2021/10/26 06:36:39;;;;;;;13.30;8.83;;;;;;;;;;5069557;28;20462;-92
2021/10/26 06:39:07;;;;;;;13.93;10.47;;;;;;;;;;5060249;28;20446;-92
2021/10/26 06:41:34;;;;;;;14.43;10.90;;;;;;;;;;5065122;28;20458;-92
2021/10/26 06:44:02;;;;;;;14.77;10.20;;;8.70;99.90;;;;;;5062778;28;20431;-93
2021/10/26 06:46:30;;;;;;;14.70;10.23;;;8.70;99.90;;;;;;5056950;28;20450;-91
2021/10/26 06:48:58;;;;;;;11.93;10.10;;;;;;;;;;5057246;28;21035;-93
2021/10/26 06:51:26;;;;;;;13.47;10.23;;;;;;;;;;5057877;28;20451;-90
2021/10/26 06:53:53;;;;;;;15.07;9.50;;;;;;;;;;5073907;28;20453;-91
2021/10/26 06:56:21;;;;;;;13.07;10.43;;;;;;;;;;5073122;28;20437;-93
2021/10/26 06:58:48;;;;;;;13.50;9.97;;;;;;;;;;5074751;28;20929;-87
2021/10/26 07:01:15;;;;;;;14.57;9.47;;;;;;;;;;5076081;28;20474;-93
2021/10/26 07:03:44;;;;;;;16.70;10.07;;;9.10;99.90;;;;;;5077353;28;20438;-92
2021/10/26 07:06:11;;;;;;;14.50;9.93;;;;;;;;;;5077865;28;20450;-92
2021/10/26 07:08:39;;;;;;;13.03;10.50;;;;;;;;;;5076188;28;20442;-90
2021/10/26 07:11:06;;;;;;;15.27;10.83;;;;;;;;;;5075342;28;20449;-87
2021/10/26 07:13:38;;;;;;;20.07;13.30;;;;;;;;;;5073852;28;20512;-90
2021/10/26 07:16:05;;;;;;;16.50;10.80;;;;;;;;;;5074250;28;20466;-92
2021/10/26 07:18:32;;;;;;;16.77;11.40;;;;;;;;;;5076018;28;20960;-89
2021/10/26 07:21:01;;;;;;;15.30;10.87;;;9.70;99.90;;;;;;5072515;28;20445;-91
2021/10/26 07:23:28;;;;;;;15.07;11.57;;;;;;;;;;5033902;28;20451;-93
2021/10/26 07:25:55;;;;;;;14.63;11.57;;;;;;;;;;5034016;28;20452;-86
2021/10/26 07:28:23;;;;;;;14.07;11.93;;;;;;;;;;5035192;28;20470;-92
2021/10/26 07:30:50;;;;;;;19.33;12.90;;;;;;;;;;5030314;28;20556;-92
2021/10/26 07:33:21;;;;;;;12.03;10.63;;;9.80;99.90;;;;;;5035176;28;20439;-88
2021/10/26 07:35:50;;;;;;;16.57;11.73;;;;;;;;;;5026903;28;20523;-89
2021/10/26 07:38:27;;;;;;;16.53;11.93;;;;;;;;;;5014323;28;20441;-91
2021/10/26 07:40:56;;;;;;;13.20;10.80;;;;;;;;;;5020157;28;20499;-92
2021/10/26 07:43:23;;;;;;;16.33;10.30;;;;;;;;;;5056096;28;20447;-93
2021/10/26 07:45:50;;;;;;;11.87;9.17;;;;;;;;;;5052876;28;20509;-93
2021/10/26 07:48:17;;;;;;;12.80;8.70;;;;;;;;;;5055815;28;20443;-93
2021/10/26 07:50:45;;;;;;;9.87;8.83;;;;;;;;;;5055165;28;20870;-92
2021/10/26 07:53:13;;;;;;;10.93;7.40;;;;;;;;;;5053188;28;20462;-91
2021/10/26 07:55:41;;;;;;;12.10;8.80;;;12.60;99.90;;;;;;5055742;28;20443;-90
2021/10/26 07:58:08;;;;;;;10.93;8.50;;;;;;;;;;5055898;28;20450;-91
2021/10/26 08:00:35;;;;;;;10.43;7.70;;;;;;;;;;5055134;28;20475;-89
2021/10/26 08:03:02;;;;;;;9.57;7.60;;;;;;;;;;5050743;28;20873;-92
2021/10/26 08:05:30;;;;;;;10.80;7.27;;;;;;;;;;5065732;28;20542;-90
2021/10/26 08:07:57;;;;;;;6.97;6.17;;;13.10;99.90;;;;;;5059524;28;20450;-91
2021/10/26 08:10:25;;;;;;;4.33;3.93;;;;;;;;;;5052747;28;20495;-92
2021/10/26 08:12:53;;;;;;;6.10;4.80;;;;;;;;;;5057530;28;20450;-93
2021/10/26 08:15:20;;;;;;;5.90;4.60;;;;;;;;;;5053365;28;20458;-92
2021/10/26 08:17:47;;;;;;;6.63;5.90;;;;;;;;;;5053798;28;20944;-93
2021/10/26 08:20:15;;;;;;;7.33;6.30;;;;;;;;;;5057178;28;20450;-92
2021/10/26 08:22:44;;;;;;;7.70;6.30;;;;;;;;;;5055995;28;20466;-93
2021/10/26 08:25:14;;;;;;;6.20;5.60;;;;;;;;;;5054000;28;20446;-91
2021/10/26 08:27:41;;;;;;;6.77;6.10;;;;;;;;;;5056758;28;20520;-89
2021/10/26 08:30:15;;;;;;;10.27;7.87;;;13.30;99.90;;;;;;5072340;28;20481;-90
2021/10/26 08:33:17;;;;;;;10.83;8.37;;;13.50;99.90;;;;;;5133869;22;20471;-88
2021/10/26 08:35:46;;;;;;;9.30;8.30;;;;;;;;;;5300921;23;20489;-93
2021/10/26 08:38:14;;;;;;;7.90;6.40;;;;;;;;;;5124998;28;20758;-95
2021/10/26 08:40:48;;;;;;;7.43;5.70;;;12.90;99.90;;;;;;5120870;28;20479;-93
2021/10/26 08:43:16;;;;;;;7.87;5.63;;;;;;;;;;5133859;28;20470;-92
2021/10/26 08:45:48;;;;;;;7.63;5.97;;;;;;;;;;5133566;28;20450;-91
2021/10/26 08:48:20;;;;;;;8.77;6.10;;;12.00;99.90;;;;;;5122753;28;20432;-94
2021/10/26 08:50:47;;;;;;;7.40;6.07;;;;;;;;;;5115157;28;20563;-93
2021/10/26 08:53:14;;;;;;;7.00;6.07;;;;;;;;;;5115924;28;20450;-93
2021/10/26 08:55:42;;;;;;;8.43;5.60;;;;;;;;;;5116538;28;20504;-88
2021/10/26 08:58:10;;;;;;;11.10;6.40;;;12.60;99.90;;;;;;5098666;28;20432;-90
2021/10/26 09:00:37;;;;;;;6.73;5.20;;;;;;;;;;5128886;28;20448;-94
2021/10/26 09:03:20;;;;;;;8.80;5.73;;;13.40;99.90;;;;;;5131224;28;20428;-90
2021/10/26 09:05:47;;;;;;;6.77;5.10;;;;;;;;;;5122159;28;20459;-89
2021/10/26 09:08:14;;;;;;;9.17;4.97;;;13.90;99.90;;;;;;5115225;28;20767;-94
2021/10/26 09:10:42;;;;;;;5.67;4.40;;;;;;;;;;5078984;28;21029;-93
2021/10/26 09:18:50;;;;;;;5.43;4.17;;;16.10;99.90;;;;;;5115456;28;20435;-94
2021/10/26 09:21:25;;;;;;;4.17;3.50;;;16.50;99.90;;;;;;5115832;28;20478;-93
2021/10/26 09:23:55;;;;;;;3.63;3.33;;;;;;;;;;5120611;28;20448;-89
2021/10/26 09:26:23;;;;;;;7.03;3.57;;;;;;;;;;5116856;28;20469;-89
2021/10/26 09:28:52;;;;;;;6.03;3.50;;;14.60;99.90;;;;;;5096823;28;20470;-90
2021/10/26 09:31:31;;;;;;;4.80;3.10;;;14.00;99.90;;;;;;5094254;28;20492;-88
2021/10/26 09:34:03;;;;;;;3.67;3.30;;;13.80;99.90;;;;;;5100200;28;20451;-89
2021/10/26 09:36:32;;;;;;;5.70;3.23;;;13.70;99.90;;;;;;5097063;28;20554;-90
2021/10/26 09:39:12;;;;;;;3.07;2.70;;;13.60;99.90;;;;;;5106711;28;20459;-89
2021/10/26 09:42:03;;;;;;;4.70;3.20;;;13.30;99.90;;;;;;5104361;28;20445;-89
2021/10/26 09:44:33;;;;;;;5.40;3.57;;;13.50;99.90;;;;;;5095451;28;20466;-90
2021/10/26 09:47:02;;;;;;;5.60;2.90;;;13.50;99.90;;;;;;5102648;28;21001;-88
2021/10/26 09:49:32;;;;;;;1.57;1.47;;;13.30;99.90;;;;;;5109130;28;20431;-89
2021/10/26 09:52:12;;;;;;;3.97;2.47;;;13.10;99.90;;;;;;5106590;28;20444;-89
2021/10/26 09:54:41;;;;;;;3.80;1.80;;;12.90;99.90;;;;;;5106955;28;20472;-87
2021/10/26 09:57:10;;;;;;;2.90;2.60;;;13.20;99.90;;;;;;5106682;28;20816;-91
2021/10/26 09:59:45;;;;;;;4.70;2.67;;;13.30;99.90;;;;;;5106564;28;20452;-89
2021/10/26 10:02:13;;;;;;;2.93;1.97;;;;;;;;;;5109924;28;20441;-91
2021/10/26 10:04:45;;;;;;;5.47;3.20;;;13.90;99.90;;;;;;5100672;28;20560;-90
2021/10/26 10:07:12;;;;;;;4.50;2.40;;;;;;;;;;5101666;28;20441;-90
2021/10/26 10:09:54;;;;;;;6.87;2.90;;;;;;;;;;5118560;22;20488;-91
2021/10/26 10:12:23;;;;;;;4.57;2.40;;;;;;;;;;5066126;28;20455;-91
2021/10/26 10:14:53;;;;;;;4.10;2.33;;;;;;;;;;5064287;28;20459;-91
2021/10/26 10:17:22;;;;;;;3.70;2.40;;;14.70;99.90;;;;;;5065085;28;20419;-91
2021/10/26 10:19:51;;;;;;;3.90;2.60;;;;;;;;;;5070640;28;20810;-90
2021/10/26 10:22:23;;;;;;;5.03;2.67;;;14.90;99.90;;;;;;5070411;28;20466;-90
2021/10/26 10:24:55;;;;;;;4.77;2.53;;;14.60;99.90;;;;;;5061765;22;20477;-91
2021/10/26 10:27:23;;;;;;;4.10;2.53;;;;;;;;;;5067978;28;20449;-91
2021/10/26 10:29:50;;;;;;;4.53;2.83;;;;;;;;;;5106793;22;20478;-91
2021/10/26 10:32:20;;;;;;;4.53;2.47;;;14.80;99.90;;;;;;5116055;22;20484;-90
2021/10/26 10:34:47;;;;;;;4.03;2.37;;;;;;;;;;5114776;22;20491;-90
2021/10/26 10:37:22;;;;;;;4.90;2.97;;;15.20;99.90;;;;;;5123213;22;20480;-91
2021/10/26 10:39:49;;;;;;;3.73;3.37;;;;;;;;;;5108673;28;20467;-90
2021/10/26 10:42:26;;;;;;;6.80;3.13;;;15.00;99.90;;;;;;5111315;28;20496;-91
2021/10/26 10:44:55;;;;;;;3.47;2.90;;;14.70;99.90;;;;;;5117646;22;20472;-90
2021/10/26 10:47:40;;;;;;;3.20;2.90;;;14.20;99.90;;;;;;5102037;28;20567;-91
2021/10/26 10:50:29;;;;;;;4.37;2.87;;;14.20;99.90;;;;;;5110311;28;20452;-89
2021/10/26 10:53:24;;;;;;;5.50;3.50;;;14.30;99.90;;;;;;5102427;28;20464;-90
2021/10/26 10:55:53;;;;;;;4.23;3.30;;;14.70;99.90;;;;;;5019150;28;20499;-90
2021/10/26 10:58:31;;;;;;;5.80;4.00;;;15.00;99.90;;;;;;5005695;28;20453;-91
2021/10/26 11:01:25;;;;;;;3.17;2.30;;;15.30;99.90;;;;;;5078973;28;20449;-89
2021/10/26 11:03:53;;;;;;;3.60;3.10;;;15.40;99.90;;;;;;5087834;28;20462;-92
2021/10/26 11:06:56;;;;;;;4.93;3.30;;;16.00;99.90;;;;;;5095896;28;20441;-92
2021/10/26 11:09:40;;;;;;;2.90;2.23;;;;;;;;;;5089958;28;20456;-89
2021/10/26 11:12:10;;;;;;;7.20;2.30;;;;;;;;;;5086142;28;20454;-90
2021/10/26 11:14:43;;;;;;;3.77;2.60;;;18.40;99.90;;;;;;5125194;28;20477;-91
2021/10/26 11:17:49;;;;;;;2.87;2.20;;;17.70;99.90;;;;;;5115841;28;20451;-93
2021/10/26 11:20:44;;;;;;;4.27;2.20;;;17.20;99.90;;;;;;5122786;28;20443;-95
2021/10/26 11:23:15;;;;;;;4.67;1.67;;;16.80;99.90;;;;;;5126339;28;20467;-95
2021/10/26 11:25:47;;;;;;;2.80;1.80;;;16.20;99.90;;;;;;5125753;28;20432;-93
2021/10/26 11:28:37;;;;;;;2.63;1.83;;;15.60;99.90;;;;;;5125739;28;20443;-92
2021/10/26 11:31:08;;;;;;;3.70;1.50;;;15.20;99.90;;;;;;5120202;28;20544;-91
2021/10/26 11:33:37;;;;;;;3.13;1.77;;;15.00;99.90;;;;;;5124406;28;20448;-88
2021/10/26 11:36:09;;;;;;;2.50;1.33;;;15.80;99.90;;;;;;5124163;28;20563;-93
2021/10/26 11:38:40;;;;;;;3.50;1.60;;;15.70;99.90;;;;;;5122282;28;20424;-90
2021/10/26 11:41:15;;;;;;;4.23;1.63;;;15.50;99.90;;;;;;5129879;28;20477;-91
2021/10/26 11:43:44;;;;;;;3.57;1.77;;;15.30;99.90;;;;;;5128751;28;20423;-90
2021/10/26 11:46:13;;;;;;;3.57;1.33;;;15.00;99.90;;;;;;5128369;28;20438;-89
2021/10/26 11:48:42;;;;;;;2.87;1.50;;;;;;;;;;5131977;28;20426;-91
2021/10/26 11:51:19;;;;;;;4.60;1.80;;;14.70;99.90;;;;;;5128031;28;20881;-92
2021/10/26 11:53:46;;;;;;;2.70;1.40;;;;;;;;;;5127191;28;20420;-91
2021/10/26 11:56:48;;;;;;;2.20;1.30;;;14.70;99.90;;;;;;5127843;28;20439;-91
2021/10/26 11:59:19;;;;;;;5.73;1.83;;;14.50;99.90;;;;;;5127320;28;20434;-92
2021/10/26 12:01:59;;;;;;;2.27;1.53;;;14.40;99.90;;;;;;5128992;28;20443;-92
2021/10/26 12:04:30;;;;;;;3.90;1.73;;;14.40;99.90;;;;;;5130472;28;20446;-90
2021/10/26 12:07:00;;;;;;;2.10;1.80;;;14.50;99.90;;;;;;5125767;28;20448;-92
2021/10/26 12:09:28;;;;;;;5.73;1.97;;;15.10;99.90;;;;;;5121631;28;20483;-95
2021/10/26 12:11:57;;;;;;;2.77;2.00;;;14.30;99.90;;;;;;5114372;28;20491;-94
2021/10/26 12:14:32;;;;;;;3.30;1.90;;;14.30;99.90;;;;;;5114800;28;20452;-96
2021/10/26 12:17:25;;;;;;;2.47;1.70;;;14.40;99.90;;;;;;5124120;28;20432;-92
2021/10/26 12:19:59;;;;;;;2.97;1.83;;;14.30;99.90;;;;;;5124896;22;20998;-94
2021/10/26 12:22:28;;;;;;;2.70;1.60;;;15.00;99.90;;;;;;5096049;28;20444;-93
2021/10/26 12:25:12;;;;;;;2.00;1.80;;;14.30;99.90;;;;;;5090998;28;20456;-92
2021/10/26 12:27:42;;;;;;;2.90;1.90;;;14.30;99.90;;;;;;5092345;28;20471;-95
2021/10/26 12:30:29;;;;;;;2.53;1.90;;;14.40;99.90;;;;;;5087798;28;20448;-91
2021/10/26 12:33:01;;;;;;;1.97;1.77;;;14.10;99.90;;;;;;5108199;28;20430;-89
2021/10/26 12:35:30;;;;;;;4.37;2.03;;;14.10;99.90;;;;;;5110591;28;20471;-91
2021/10/26 12:38:25;;;;;;;1.90;1.60;;;14.10;99.90;;;;;;5094622;28;20445;-89
2021/10/26 12:40:53;;;;;;;4.63;2.50;;;14.10;99.90;;;;;;5098467;28;20452;-92
2021/10/26 12:43:23;;;;;;;3.30;3.00;;;13.80;99.90;;;;;;5077044;28;20495;-91
2021/10/26 12:45:53;;;;;;;4.40;2.93;;;13.70;99.90;;;;;;5095289;28;20491;-94
2021/10/26 12:48:21;;;;;;;5.17;2.30;;;;;;;;;;5095549;28;20508;-93
2021/10/26 12:50:56;;;;;;;2.13;1.20;;;13.30;99.90;;;;;;5094416;28;20489;-93
2021/10/26 12:53:33;;;;;;;1.30;1.20;;;13.60;99.90;;;;;;5095422;28;20950;-89
2021/10/26 12:56:03;;;;;;;1.30;1.20;;;13.80;99.90;;;;;;5095225;28;20445;-94
2021/10/26 12:58:35;;;;;;;1.43;1.00;;;13.80;99.90;;;;;;5096146;28;20449;-91
2021/10/26 13:01:04;;;;;;;1.53;1.37;;;14.20;99.90;;;;;;5096741;28;20456;-92
2021/10/26 13:03:31;;;;;;;1.80;1.33;;;;;;;;;;5096824;28;20437;-93
2021/10/26 13:06:05;;;;;;;1.40;1.10;;;14.30;99.90;;;;;;5097292;28;20448;-94
2021/10/26 13:08:32;;;;;;;3.97;1.53;;;;;;;;;;5078614;28;20451;-94
2021/10/26 13:11:00;;;;;;;1.33;0.80;;;;;;;;;;5095441;28;20468;-94
2021/10/26 13:13:27;;;;;;;1.33;0.80;;;;;;;;;;5095812;28;20556;-94
2021/10/26 13:15:54;;;;;;;2.40;1.17;;;;;;;;;;5094422;28;20447;-89
2021/10/26 13:18:27;;;;;;;1.60;1.07;;;13.60;99.90;;;;;;5079176;28;20443;-91
2021/10/26 13:20:54;;;;;;;2.80;1.40;;;;;;;;;;5075978;28;20469;-95
2021/10/26 13:23:30;;;;;;;1.60;0.97;;;13.40;99.90;;;;;;5074606;28;20450;-94
2021/10/26 13:26:01;;;;;;;1.20;1.10;;;13.50;99.90;;;;;;5073370;28;20456;-92
2021/10/26 13:28:30;;;;;;;2.03;1.20;;;13.70;99.90;;;;;;5079221;28;20779;-89
2021/10/26 13:30:59;;;;;;;1.90;1.20;;;13.80;99.90;;;;;;5089666;28;20465;-92
2021/10/26 13:33:28;;;;;;;2.10;1.37;;;14.10;99.90;;;;;;5075061;28;20521;-92
2021/10/26 13:35:57;;;;;;;2.90;1.33;;;14.20;99.90;;;;;;5069929;28;20489;-92
2021/10/26 13:38:25;;;;;;;4.43;1.60;;;;;;;;;;5078834;28;20476;-91
2021/10/26 13:40:52;;;;;;;2.43;1.40;;;;;;;;;;5077313;28;20512;-90
2021/10/26 13:43:21;;;;;;;2.30;1.10;;;14.50;99.90;;;;;;5075884;28;20786;-91
2021/10/26 13:45:48;;;;;;;1.90;1.20;;;;;;;;;;5077122;28;20445;-90
2021/10/26 13:48:17;;;;;;;2.60;1.20;;;;;;;;;;5080450;28;20438;-92
2021/10/26 13:50:48;;;;;;;1.87;1.00;;;14.50;99.90;;;;;;5079424;28;20453;-94
2021/10/26 13:53:15;;;;;;;2.70;1.40;;;;;;;;;;5080547;28;20491;-93
2021/10/26 13:55:44;;;;;;;2.53;1.23;;;14.50;99.90;;;;;;5080302;28;20972;-91
2021/10/26 13:58:11;;;;;;;1.83;1.00;;;;;;;;;;5078613;28;20456;-92
2021/10/26 14:00:40;;;;;;;3.23;1.40;;;14.30;99.90;;;;;;5081590;28;20450;-94
2021/10/26 14:03:08;;;;;;;4.67;1.30;;;;;;;;;;5091828;28;20883;-91
2021/10/26 14:05:35;;;;;;;1.33;1.23;;;;;;;;;;5086658;28;20494;-91
2021/10/26 14:08:04;;;;;;;1.83;1.10;;;14.70;99.90;;;;;;5081388;28;20430;-91
2021/10/26 14:10:31;;;;;;;1.70;1.20;;;;;;;;;;5079033;28;20909;-92
2021/10/26 14:12:58;;;;;;;5.10;1.73;;;;;;;;;;5077963;28;20493;-93
2021/10/26 14:15:26;;;;;;;7.63;1.43;;;;;;;;;;5078756;28;20438;-90
2021/10/26 14:17:54;;;;;;;2.00;1.00;;;;;;;;;;5094367;28;20460;-93
2021/10/26 14:20:25;;;;;;;4.03;1.43;;;14.60;99.90;;;;;;5099420;28;20504;-93